sensor_id;sensor_type;location;lat;lon;timestamp;P1;durP1;ratioP1;P2;durP2;ratioP2
4214;SDS011;2121;48.062;7.850;2022-08-03T00:00:04;2.73;;;2.60;;
4214;SDS011;2121;48.062;7.850;2022-08-03T00:02:31;2.17;;;2.07;;
4214;SDS011;2121;48.062;7.850;2022-08-03T00:04:57;2.53;;;2.33;;
4214;SDS011;2121;48.062;7.850;2022-08-03T00:07:23;2.40;;;2.30;;
4214;SDS011;2121;48.062;7.850;2022-08-03T00:09:48;2.40;;;2.20;;
4214;SDS011;2121;48.062;7.850;2022-08-03T00:12:14;2.17;;;2.07;;
4214;SDS011;2121;48.062;7.850;2022-08-03T00:14:40;4.73;;;2.40;;
4214;SDS011;2121;48.062;7.850;2022-08-03T00:17:06;2.60;;;2.40;;
4214;SDS011;2121;48.062;7.850;2022-08-03T00:19:32;2.40;;;2.20;;
4214;SDS011;2121;48.062;7.850;2022-08-03T00:21:58;2.20;;;2.00;;
4214;SDS011;2121;48.062;7.850;2022-08-03T00:24:25;2.50;;;2.40;;
4214;SDS011;2121;48.062;7.850;2022-08-03T00:26:52;2.10;;;2.00;;
4214;SDS011;2121;48.062;7.850;2022-08-03T00:29:18;2.73;;;2.53;;
4214;SDS011;2121;48.062;7.850;2022-08-03T00:31:43;2.33;;;2.17;;
4214;SDS011;2121;48.062;7.850;2022-08-03T00:34:09;2.40;;;2.20;;
4214;SDS011;2121;48.062;7.850;2022-08-03T00:36:35;2.83;;;2.40;;
4214;SDS011;2121;48.062;7.850;2022-08-03T00:39:01;3.17;;;2.57;;
4214;SDS011;2121;48.062;7.850;2022-08-03T00:41:27;2.37;;;2.17;;
4214;SDS011;2121;48.062;7.850;2022-08-03T00:43:52;3.77;;;2.30;;
4214;SDS011;2121;48.062;7.850;2022-08-03T00:46:18;2.43;;;2.27;;
4214;SDS011;2121;48.062;7.850;2022-08-03T00:48:46;4.20;;;2.83;;
4214;SDS011;2121;48.062;7.850;2022-08-03T00:51:15;2.60;;;2.40;;
4214;SDS011;2121;48.062;7.850;2022-08-03T00:53:42;2.47;;;2.27;;
4214;SDS011;2121;48.062;7.850;2022-08-03T00:56:08;2.33;;;2.23;;
4214;SDS011;2121;48.062;7.850;2022-08-03T00:58:37;2.97;;;2.77;;
4214;SDS011;2121;48.062;7.850;2022-08-03T01:01:03;2.50;;;2.30;;
4214;SDS011;2121;48.062;7.850;2022-08-03T01:03:30;3.33;;;2.37;;
4214;SDS011;2121;48.062;7.850;2022-08-03T01:06:06;2.53;;;2.33;;
4214;SDS011;2121;48.062;7.850;2022-08-03T01:08:51;2.30;;;2.10;;
4214;SDS011;2121;48.062;7.850;2022-08-03T01:11:31;3.17;;;1.83;;
4214;SDS011;2121;48.062;7.850;2022-08-03T01:17:27;2.37;;;2.27;;
4214;SDS011;2121;48.062;7.850;2022-08-03T01:20:21;2.37;;;2.20;;
4214;SDS011;2121;48.062;7.850;2022-08-03T01:25:59;3.50;;;2.33;;
4214;SDS011;2121;48.062;7.850;2022-08-03T01:31:16;2.33;;;2.13;;
4214;SDS011;2121;48.062;7.850;2022-08-03T01:33:52;2.33;;;2.00;;
4214;SDS011;2121;48.062;7.850;2022-08-03T01:36:28;2.30;;;2.13;;
4214;SDS011;2121;48.062;7.850;2022-08-03T01:39:01;2.37;;;2.17;;
4214;SDS011;2121;48.062;7.850;2022-08-03T01:41:34;2.60;;;2.30;;
4214;SDS011;2121;48.062;7.850;2022-08-03T01:44:08;2.37;;;2.17;;
4214;SDS011;2121;48.062;7.850;2022-08-03T01:46:36;3.00;;;2.67;;
4214;SDS011;2121;48.062;7.850;2022-08-03T01:49:05;2.50;;;2.30;;
4214;SDS011;2121;48.062;7.850;2022-08-03T01:51:36;3.07;;;2.77;;
4214;SDS011;2121;48.062;7.850;2022-08-03T01:54:04;2.50;;;2.30;;
4214;SDS011;2121;48.062;7.850;2022-08-03T01:56:31;3.77;;;2.40;;
4214;SDS011;2121;48.062;7.850;2022-08-03T01:58:57;2.70;;;2.50;;
4214;SDS011;2121;48.062;7.850;2022-08-03T02:01:25;4.57;;;2.20;;
4214;SDS011;2121;48.062;7.850;2022-08-03T02:03:52;2.80;;;2.00;;
4214;SDS011;2121;48.062;7.850;2022-08-03T02:06:21;2.27;;;2.17;;
4214;SDS011;2121;48.062;7.850;2022-08-03T02:08:48;4.90;;;2.40;;
4214;SDS011;2121;48.062;7.850;2022-08-03T02:11:18;2.77;;;2.57;;
4214;SDS011;2121;48.062;7.850;2022-08-03T02:13:44;2.60;;;2.40;;
4214;SDS011;2121;48.062;7.850;2022-08-03T02:16:11;2.70;;;2.50;;
4214;SDS011;2121;48.062;7.850;2022-08-03T02:18:39;2.37;;;2.17;;
4214;SDS011;2121;48.062;7.850;2022-08-03T02:21:06;4.03;;;2.53;;
4214;SDS011;2121;48.062;7.850;2022-08-03T02:23:35;2.17;;;2.07;;
4214;SDS011;2121;48.062;7.850;2022-08-03T02:26:02;4.20;;;2.33;;
4214;SDS011;2121;48.062;7.850;2022-08-03T02:28:34;3.20;;;2.73;;
4214;SDS011;2121;48.062;7.850;2022-08-03T02:31:03;3.13;;;2.53;;
4214;SDS011;2121;48.062;7.850;2022-08-03T02:33:40;7.70;;;2.23;;
4214;SDS011;2121;48.062;7.850;2022-08-03T02:36:10;4.70;;;3.07;;
4214;SDS011;2121;48.062;7.850;2022-08-03T02:38:40;3.43;;;1.90;;
4214;SDS011;2121;48.062;7.850;2022-08-03T02:41:11;10.40;;;2.70;;
4214;SDS011;2121;48.062;7.850;2022-08-03T02:43:41;5.73;;;3.20;;
4214;SDS011;2121;48.062;7.850;2022-08-03T02:46:10;2.80;;;2.60;;
4214;SDS011;2121;48.062;7.850;2022-08-03T02:48:38;3.50;;;2.60;;
4214;SDS011;2121;48.062;7.850;2022-08-03T02:51:05;2.60;;;2.40;;
4214;SDS011;2121;48.062;7.850;2022-08-03T02:53:32;2.37;;;2.17;;
4214;SDS011;2121;48.062;7.850;2022-08-03T02:56:00;2.50;;;2.30;;
4214;SDS011;2121;48.062;7.850;2022-08-03T02:58:28;3.40;;;2.83;;
4214;SDS011;2121;48.062;7.850;2022-08-03T03:00:55;3.83;;;2.70;;
4214;SDS011;2121;48.062;7.850;2022-08-03T03:03:22;2.73;;;2.53;;
4214;SDS011;2121;48.062;7.850;2022-08-03T03:05:49;2.33;;;2.13;;
4214;SDS011;2121;48.062;7.850;2022-08-03T03:08:16;2.87;;;2.63;;
4214;SDS011;2121;48.062;7.850;2022-08-03T03:10:43;2.90;;;2.70;;
4214;SDS011;2121;48.062;7.850;2022-08-03T03:13:10;3.00;;;2.80;;
4214;SDS011;2121;48.062;7.850;2022-08-03T03:15:39;3.73;;;2.33;;
4214;SDS011;2121;48.062;7.850;2022-08-03T03:18:07;2.87;;;2.57;;
4214;SDS011;2121;48.062;7.850;2022-08-03T03:20:35;3.20;;;2.43;;
4214;SDS011;2121;48.062;7.850;2022-08-03T03:23:02;2.60;;;2.43;;
4214;SDS011;2121;48.062;7.850;2022-08-03T03:25:32;5.00;;;2.63;;
4214;SDS011;2121;48.062;7.850;2022-08-03T03:27:59;3.17;;;2.97;;
4214;SDS011;2121;48.062;7.850;2022-08-03T03:30:25;3.40;;;2.97;;
4214;SDS011;2121;48.062;7.850;2022-08-03T03:32:52;3.70;;;2.80;;
4214;SDS011;2121;48.062;7.850;2022-08-03T03:35:18;2.83;;;2.63;;
4214;SDS011;2121;48.062;7.850;2022-08-03T03:37:44;4.03;;;2.67;;
4214;SDS011;2121;48.062;7.850;2022-08-03T03:40:10;2.80;;;2.37;;
4214;SDS011;2121;48.062;7.850;2022-08-03T03:42:38;2.70;;;2.50;;
4214;SDS011;2121;48.062;7.850;2022-08-03T03:45:04;4.30;;;2.77;;
4214;SDS011;2121;48.062;7.850;2022-08-03T03:47:35;2.87;;;2.60;;
4214;SDS011;2121;48.062;7.850;2022-08-03T03:50:02;2.80;;;2.60;;
4214;SDS011;2121;48.062;7.850;2022-08-03T03:52:30;2.77;;;2.57;;
4214;SDS011;2121;48.062;7.850;2022-08-03T03:54:57;2.53;;;2.33;;
4214;SDS011;2121;48.062;7.850;2022-08-03T03:57:23;3.00;;;2.80;;
4214;SDS011;2121;48.062;7.850;2022-08-03T03:59:50;4.20;;;3.80;;
4214;SDS011;2121;48.062;7.850;2022-08-03T04:02:16;3.10;;;2.80;;
4214;SDS011;2121;48.062;7.850;2022-08-03T04:04:42;3.40;;;2.87;;
4214;SDS011;2121;48.062;7.850;2022-08-03T04:07:26;3.07;;;2.87;;
4214;SDS011;2121;48.062;7.850;2022-08-03T04:10:31;4.13;;;2.93;;
4214;SDS011;2121;48.062;7.850;2022-08-03T04:13:18;2.90;;;2.60;;
4214;SDS011;2121;48.062;7.850;2022-08-03T04:15:45;3.33;;;2.67;;
4214;SDS011;2121;48.062;7.850;2022-08-03T04:18:12;3.33;;;2.73;;
4214;SDS011;2121;48.062;7.850;2022-08-03T04:20:39;4.03;;;3.07;;
4214;SDS011;2121;48.062;7.850;2022-08-03T04:23:11;4.07;;;2.87;;
4214;SDS011;2121;48.062;7.850;2022-08-03T04:25:38;2.73;;;2.53;;
4214;SDS011;2121;48.062;7.850;2022-08-03T04:28:07;3.00;;;2.40;;
4214;SDS011;2121;48.062;7.850;2022-08-03T04:30:33;6.47;;;2.80;;
4214;SDS011;2121;48.062;7.850;2022-08-03T04:33:01;2.70;;;2.50;;
4214;SDS011;2121;48.062;7.850;2022-08-03T04:35:30;4.10;;;3.80;;
4214;SDS011;2121;48.062;7.850;2022-08-03T04:38:00;2.93;;;2.70;;
4214;SDS011;2121;48.062;7.850;2022-08-03T04:40:34;3.13;;;2.80;;
4214;SDS011;2121;48.062;7.850;2022-08-03T04:43:04;2.83;;;2.50;;
4214;SDS011;2121;48.062;7.850;2022-08-03T04:45:32;2.47;;;2.27;;
4214;SDS011;2121;48.062;7.850;2022-08-03T04:47:59;4.90;;;3.00;;
4214;SDS011;2121;48.062;7.850;2022-08-03T04:50:25;3.60;;;2.70;;
4214;SDS011;2121;48.062;7.850;2022-08-03T04:52:52;8.70;;;3.30;;
4214;SDS011;2121;48.062;7.850;2022-08-03T04:55:26;2.90;;;2.63;;
4214;SDS011;2121;48.062;7.850;2022-08-03T04:57:53;3.40;;;3.00;;
4214;SDS011;2121;48.062;7.850;2022-08-03T05:00:18;3.57;;;3.27;;
4214;SDS011;2121;48.062;7.850;2022-08-03T05:02:45;5.40;;;3.17;;
4214;SDS011;2121;48.062;7.850;2022-08-03T05:05:11;4.20;;;3.00;;
4214;SDS011;2121;48.062;7.850;2022-08-03T05:07:37;3.50;;;3.00;;
4214;SDS011;2121;48.062;7.850;2022-08-03T05:10:06;4.57;;;3.07;;
4214;SDS011;2121;48.062;7.850;2022-08-03T05:12:33;5.13;;;3.30;;
4214;SDS011;2121;48.062;7.850;2022-08-03T05:15:00;4.10;;;3.40;;
4214;SDS011;2121;48.062;7.850;2022-08-03T05:17:26;5.07;;;3.60;;
4214;SDS011;2121;48.062;7.850;2022-08-03T05:19:53;3.73;;;3.00;;
4214;SDS011;2121;48.062;7.850;2022-08-03T05:22:22;3.30;;;3.00;;
4214;SDS011;2121;48.062;7.850;2022-08-03T05:24:48;4.67;;;3.00;;
4214;SDS011;2121;48.062;7.850;2022-08-03T05:27:14;3.30;;;3.10;;
4214;SDS011;2121;48.062;7.850;2022-08-03T05:29:43;3.20;;;2.90;;
4214;SDS011;2121;48.062;7.850;2022-08-03T05:32:10;4.00;;;3.20;;
4214;SDS011;2121;48.062;7.850;2022-08-03T05:34:35;3.23;;;2.93;;
4214;SDS011;2121;48.062;7.850;2022-08-03T05:37:01;3.20;;;2.87;;
4214;SDS011;2121;48.062;7.850;2022-08-03T05:39:27;4.17;;;3.37;;
4214;SDS011;2121;48.062;7.850;2022-08-03T05:41:53;4.07;;;3.20;;
4214;SDS011;2121;48.062;7.850;2022-08-03T05:44:19;5.30;;;3.00;;
4214;SDS011;2121;48.062;7.850;2022-08-03T05:46:45;6.60;;;3.43;;
4214;SDS011;2121;48.062;7.850;2022-08-03T05:49:11;3.40;;;2.80;;
4214;SDS011;2121;48.062;7.850;2022-08-03T05:51:36;3.27;;;2.40;;
4214;SDS011;2121;48.062;7.850;2022-08-03T05:54:02;5.97;;;3.20;;
4214;SDS011;2121;48.062;7.850;2022-08-03T05:56:28;3.13;;;2.93;;
4214;SDS011;2121;48.062;7.850;2022-08-03T05:58:54;5.13;;;3.87;;
4214;SDS011;2121;48.062;7.850;2022-08-03T06:01:20;3.73;;;2.90;;
4214;SDS011;2121;48.062;7.850;2022-08-03T06:03:47;3.83;;;2.93;;
4214;SDS011;2121;48.062;7.850;2022-08-03T06:06:14;3.60;;;3.30;;
4214;SDS011;2121;48.062;7.850;2022-08-03T06:08:40;3.10;;;2.90;;
4214;SDS011;2121;48.062;7.850;2022-08-03T06:11:08;8.63;;;2.90;;
4214;SDS011;2121;48.062;7.850;2022-08-03T06:13:34;10.70;;;2.70;;
4214;SDS011;2121;48.062;7.850;2022-08-03T06:16:00;3.50;;;2.63;;
4214;SDS011;2121;48.062;7.850;2022-08-03T06:18:26;5.00;;;3.47;;
4214;SDS011;2121;48.062;7.850;2022-08-03T06:20:52;3.93;;;3.20;;
4214;SDS011;2121;48.062;7.850;2022-08-03T06:23:18;3.57;;;3.23;;
4214;SDS011;2121;48.062;7.850;2022-08-03T06:25:44;3.73;;;3.27;;
4214;SDS011;2121;48.062;7.850;2022-08-03T06:28:11;5.30;;;2.90;;
4214;SDS011;2121;48.062;7.850;2022-08-03T06:30:42;3.50;;;3.17;;
4214;SDS011;2121;48.062;7.850;2022-08-03T06:33:08;5.30;;;3.80;;
4214;SDS011;2121;48.062;7.850;2022-08-03T06:35:34;5.67;;;3.60;;
4214;SDS011;2121;48.062;7.850;2022-08-03T06:38:00;4.70;;;3.10;;
4214;SDS011;2121;48.062;7.850;2022-08-03T06:40:26;3.93;;;3.53;;
4214;SDS011;2121;48.062;7.850;2022-08-03T06:42:55;5.00;;;3.13;;
4214;SDS011;2121;48.062;7.850;2022-08-03T06:45:22;5.10;;;3.30;;
4214;SDS011;2121;48.062;7.850;2022-08-03T06:47:58;7.53;;;3.20;;
4214;SDS011;2121;48.062;7.850;2022-08-03T06:50:32;7.77;;;3.13;;
4214;SDS011;2121;48.062;7.850;2022-08-03T06:53:00;5.37;;;2.53;;
4214;SDS011;2121;48.062;7.850;2022-08-03T06:55:27;2.93;;;2.73;;
4214;SDS011;2121;48.062;7.850;2022-08-03T06:57:53;3.70;;;2.73;;
4214;SDS011;2121;48.062;7.850;2022-08-03T07:00:19;9.00;;;2.87;;
4214;SDS011;2121;48.062;7.850;2022-08-03T07:02:45;3.53;;;2.40;;
4214;SDS011;2121;48.062;7.850;2022-08-03T07:05:11;2.87;;;2.67;;
4214;SDS011;2121;48.062;7.850;2022-08-03T07:07:37;3.30;;;3.10;;
4214;SDS011;2121;48.062;7.850;2022-08-03T07:10:06;3.10;;;2.80;;
4214;SDS011;2121;48.062;7.850;2022-08-03T07:12:33;5.93;;;3.40;;
4214;SDS011;2121;48.062;7.850;2022-08-03T07:15:00;3.37;;;2.87;;
4214;SDS011;2121;48.062;7.850;2022-08-03T07:17:27;4.70;;;2.67;;
4214;SDS011;2121;48.062;7.850;2022-08-03T07:19:54;2.30;;;2.20;;
4214;SDS011;2121;48.062;7.850;2022-08-03T07:22:20;2.93;;;2.73;;
4214;SDS011;2121;48.062;7.850;2022-08-03T07:24:46;3.60;;;3.40;;
4214;SDS011;2121;48.062;7.850;2022-08-03T07:27:12;3.27;;;2.70;;
4214;SDS011;2121;48.062;7.850;2022-08-03T07:29:40;2.67;;;2.47;;
4214;SDS011;2121;48.062;7.850;2022-08-03T07:32:05;3.00;;;2.80;;
4214;SDS011;2121;48.062;7.850;2022-08-03T07:34:31;4.20;;;2.17;;
4214;SDS011;2121;48.062;7.850;2022-08-03T07:36:57;3.90;;;2.77;;
4214;SDS011;2121;48.062;7.850;2022-08-03T07:39:23;2.30;;;2.10;;
4214;SDS011;2121;48.062;7.850;2022-08-03T07:41:49;2.73;;;2.53;;
4214;SDS011;2121;48.062;7.850;2022-08-03T07:44:18;3.23;;;3.00;;
4214;SDS011;2121;48.062;7.850;2022-08-03T07:46:44;1.93;;;1.83;;
4214;SDS011;2121;48.062;7.850;2022-08-03T07:49:11;3.33;;;2.70;;
4214;SDS011;2121;48.062;7.850;2022-08-03T07:51:37;2.77;;;2.57;;
4214;SDS011;2121;48.062;7.850;2022-08-03T07:54:03;4.30;;;2.60;;
4214;SDS011;2121;48.062;7.850;2022-08-03T07:56:29;2.90;;;2.53;;
4214;SDS011;2121;48.062;7.850;2022-08-03T07:58:55;2.73;;;2.53;;
4214;SDS011;2121;48.062;7.850;2022-08-03T08:01:21;10.23;;;3.20;;
4214;SDS011;2121;48.062;7.850;2022-08-03T08:03:47;6.00;;;3.00;;
4214;SDS011;2121;48.062;7.850;2022-08-03T08:06:14;2.90;;;2.50;;
4214;SDS011;2121;48.062;7.850;2022-08-03T08:08:40;2.77;;;2.53;;
4214;SDS011;2121;48.062;7.850;2022-08-03T08:11:06;2.53;;;2.30;;
4214;SDS011;2121;48.062;7.850;2022-08-03T08:13:32;3.90;;;2.97;;
4214;SDS011;2121;48.062;7.850;2022-08-03T08:15:58;2.33;;;2.13;;
4214;SDS011;2121;48.062;7.850;2022-08-03T08:18:25;6.10;;;3.40;;
4214;SDS011;2121;48.062;7.850;2022-08-03T08:20:53;2.53;;;2.33;;
4214;SDS011;2121;48.062;7.850;2022-08-03T08:23:20;3.30;;;2.50;;
4214;SDS011;2121;48.062;7.850;2022-08-03T08:25:50;5.00;;;2.97;;
4214;SDS011;2121;48.062;7.850;2022-08-03T08:28:17;5.50;;;3.43;;
4214;SDS011;2121;48.062;7.850;2022-08-03T08:30:44;3.13;;;2.93;;
4214;SDS011;2121;48.062;7.850;2022-08-03T08:33:11;3.03;;;2.80;;
4214;SDS011;2121;48.062;7.850;2022-08-03T08:35:37;5.23;;;2.40;;
4214;SDS011;2121;48.062;7.850;2022-08-03T08:38:03;3.27;;;3.00;;
4214;SDS011;2121;48.062;7.850;2022-08-03T08:40:28;3.63;;;2.33;;
4214;SDS011;2121;48.062;7.850;2022-08-03T08:42:54;2.57;;;2.43;;
4214;SDS011;2121;48.062;7.850;2022-08-03T08:45:20;3.40;;;2.70;;
4214;SDS011;2121;48.062;7.850;2022-08-03T08:47:47;3.37;;;3.03;;
4214;SDS011;2121;48.062;7.850;2022-08-03T08:50:17;4.30;;;2.40;;
4214;SDS011;2121;48.062;7.850;2022-08-03T08:52:46;7.57;;;3.50;;
4214;SDS011;2121;48.062;7.850;2022-08-03T08:55:14;2.97;;;2.77;;
4214;SDS011;2121;48.062;7.850;2022-08-03T08:57:50;3.40;;;2.97;;
4214;SDS011;2121;48.062;7.850;2022-08-03T09:00:22;3.13;;;2.40;;
4214;SDS011;2121;48.062;7.850;2022-08-03T09:02:48;4.30;;;2.70;;
4214;SDS011;2121;48.062;7.850;2022-08-03T09:05:15;2.80;;;2.43;;
4214;SDS011;2121;48.062;7.850;2022-08-03T09:07:43;2.73;;;2.53;;
4214;SDS011;2121;48.062;7.850;2022-08-03T09:10:13;2.75;;;2.55;;
4214;SDS011;2121;48.062;7.850;2022-08-03T09:12:46;2.85;;;2.65;;
4214;SDS011;2121;48.062;7.850;2022-08-03T09:17:46;2.75;;;2.35;;
4214;SDS011;2121;48.062;7.850;2022-08-03T09:20:14;3.05;;;2.72;;
4214;SDS011;2121;48.062;7.850;2022-08-03T09:25:32;4.32;;;2.88;;
4214;SDS011;2121;48.062;7.850;2022-08-03T09:30:37;5.22;;;2.53;;
4214;SDS011;2121;48.062;7.850;2022-08-03T09:33:22;2.90;;;2.67;;
4214;SDS011;2121;48.062;7.850;2022-08-03T09:35:48;3.88;;;3.33;;
4214;SDS011;2121;48.062;7.850;2022-08-03T09:38:15;4.55;;;2.78;;
4214;SDS011;2121;48.062;7.850;2022-08-03T09:40:50;3.00;;;2.80;;
4214;SDS011;2121;48.062;7.850;2022-08-03T09:43:16;5.75;;;2.63;;
4214;SDS011;2121;48.062;7.850;2022-08-03T09:45:43;2.85;;;2.70;;
4214;SDS011;2121;48.062;7.850;2022-08-03T09:50:57;2.83;;;2.63;;
4214;SDS011;2121;48.062;7.850;2022-08-03T09:53:25;2.88;;;2.30;;
4214;SDS011;2121;48.062;7.850;2022-08-03T09:55:55;2.47;;;2.38;;
4214;SDS011;2121;48.062;7.850;2022-08-03T09:58:27;3.40;;;3.10;;
4214;SDS011;2121;48.062;7.850;2022-08-03T10:03:36;2.80;;;2.60;;
4214;SDS011;2121;48.062;7.850;2022-08-03T10:09:05;3.92;;;2.55;;
4214;SDS011;2121;48.062;7.850;2022-08-03T10:11:41;2.80;;;2.60;;
4214;SDS011;2121;48.062;7.850;2022-08-03T10:14:10;3.45;;;2.58;;
4214;SDS011;2121;48.062;7.850;2022-08-03T10:16:43;4.28;;;2.80;;
4214;SDS011;2121;48.062;7.850;2022-08-03T10:19:10;3.03;;;2.75;;
4214;SDS011;2121;48.062;7.850;2022-08-03T10:21:38;2.95;;;2.75;;
4214;SDS011;2121;48.062;7.850;2022-08-03T10:24:12;3.85;;;2.95;;
4214;SDS011;2121;48.062;7.850;2022-08-03T10:26:41;2.90;;;2.65;;
4214;SDS011;2121;48.062;7.850;2022-08-03T10:29:14;2.35;;;2.25;;
4214;SDS011;2121;48.062;7.850;2022-08-03T10:31:46;4.35;;;2.30;;
4214;SDS011;2121;48.062;7.850;2022-08-03T10:34:21;5.18;;;2.50;;
4214;SDS011;2121;48.062;7.850;2022-08-03T10:36:50;3.17;;;2.97;;
4214;SDS011;2121;48.062;7.850;2022-08-03T10:39:21;4.70;;;2.30;;
4214;SDS011;2121;48.062;7.850;2022-08-03T10:41:51;2.40;;;2.25;;
4214;SDS011;2121;48.062;7.850;2022-08-03T10:44:20;2.80;;;2.60;;
4214;SDS011;2121;48.062;7.850;2022-08-03T10:46:48;6.07;;;2.70;;
4214;SDS011;2121;48.062;7.850;2022-08-03T10:49:16;7.70;;;2.92;;
4214;SDS011;2121;48.062;7.850;2022-08-03T10:51:44;2.08;;;2.03;;
4214;SDS011;2121;48.062;7.850;2022-08-03T10:56:59;5.95;;;2.83;;
4214;SDS011;2121;48.062;7.850;2022-08-03T11:02:15;3.90;;;2.30;;
4214;SDS011;2121;48.062;7.850;2022-08-03T11:04:42;2.40;;;2.30;;
4214;SDS011;2121;48.062;7.850;2022-08-03T11:07:17;3.00;;;2.13;;
4214;SDS011;2121;48.062;7.850;2022-08-03T11:09:49;5.28;;;2.58;;
4214;SDS011;2121;48.062;7.850;2022-08-03T11:12:28;2.88;;;2.70;;
4214;SDS011;2121;48.062;7.850;2022-08-03T11:14:56;2.53;;;2.33;;
4214;SDS011;2121;48.062;7.850;2022-08-03T11:17:33;5.05;;;2.20;;
4214;SDS011;2121;48.062;7.850;2022-08-03T11:20:00;2.95;;;2.30;;
4214;SDS011;2121;48.062;7.850;2022-08-03T11:22:46;2.42;;;2.30;;
4214;SDS011;2121;48.062;7.850;2022-08-03T11:25:13;2.55;;;2.45;;
4214;SDS011;2121;48.062;7.850;2022-08-03T11:27:40;2.47;;;2.28;;
4214;SDS011;2121;48.062;7.850;2022-08-03T11:35:22;2.20;;;2.00;;
4214;SDS011;2121;48.062;7.850;2022-08-03T11:40:40;2.80;;;2.60;;
4214;SDS011;2121;48.062;7.850;2022-08-03T11:48:35;2.90;;;2.30;;
4214;SDS011;2121;48.062;7.850;2022-08-03T11:54:05;2.55;;;2.35;;
4214;SDS011;2121;48.062;7.850;2022-08-03T11:56:47;3.75;;;2.10;;
4214;SDS011;2121;48.062;7.850;2022-08-03T11:59:14;2.58;;;2.38;;
4214;SDS011;2121;48.062;7.850;2022-08-03T12:01:42;2.75;;;2.55;;
4214;SDS011;2121;48.062;7.850;2022-08-03T12:04:08;3.25;;;2.55;;
4214;SDS011;2121;48.062;7.850;2022-08-03T12:06:35;2.42;;;2.22;;
4214;SDS011;2121;48.062;7.850;2022-08-03T12:09:19;3.28;;;2.03;;
4214;SDS011;2121;48.062;7.850;2022-08-03T12:11:49;4.80;;;2.08;;
4214;SDS011;2121;48.062;7.850;2022-08-03T12:14:16;2.65;;;2.45;;
4214;SDS011;2121;48.062;7.850;2022-08-03T12:16:46;2.90;;;2.38;;
4214;SDS011;2121;48.062;7.850;2022-08-03T12:19:12;1.83;;;1.73;;
4214;SDS011;2121;48.062;7.850;2022-08-03T12:21:45;2.30;;;2.20;;
4214;SDS011;2121;48.062;7.850;2022-08-03T12:24:15;2.67;;;2.47;;
4214;SDS011;2121;48.062;7.850;2022-08-03T12:26:45;2.03;;;1.92;;
4214;SDS011;2121;48.062;7.850;2022-08-03T12:29:17;1.92;;;1.83;;
4214;SDS011;2121;48.062;7.850;2022-08-03T12:31:49;2.13;;;2.03;;
4214;SDS011;2121;48.062;7.850;2022-08-03T12:34:16;3.83;;;2.00;;
4214;SDS011;2121;48.062;7.850;2022-08-03T12:36:53;2.22;;;2.03;;
4214;SDS011;2121;48.062;7.850;2022-08-03T12:39:25;4.22;;;2.40;;
4214;SDS011;2121;48.062;7.850;2022-08-03T12:41:54;2.65;;;2.03;;
4214;SDS011;2121;48.062;7.850;2022-08-03T12:44:30;1.88;;;1.88;;
4214;SDS011;2121;48.062;7.850;2022-08-03T12:46:59;2.08;;;1.98;;
4214;SDS011;2121;48.062;7.850;2022-08-03T12:49:27;1.77;;;1.67;;
4214;SDS011;2121;48.062;7.850;2022-08-03T12:54:23;2.05;;;1.70;;
4214;SDS011;2121;48.062;7.850;2022-08-03T12:59:38;1.52;;;1.52;;
4214;SDS011;2121;48.062;7.850;2022-08-03T13:02:16;2.17;;;1.88;;
4214;SDS011;2121;48.062;7.850;2022-08-03T13:04:44;1.90;;;1.80;;
4214;SDS011;2121;48.062;7.850;2022-08-03T13:07:11;1.60;;;1.50;;
4214;SDS011;2121;48.062;7.850;2022-08-03T13:09:42;1.58;;;1.52;;
4214;SDS011;2121;48.062;7.850;2022-08-03T13:12:13;1.60;;;1.60;;
4214;SDS011;2121;48.062;7.850;2022-08-03T13:14:41;1.50;;;1.50;;
4214;SDS011;2121;48.062;7.850;2022-08-03T13:17:10;1.73;;;1.73;;
4214;SDS011;2121;48.062;7.850;2022-08-03T13:19:37;1.65;;;1.55;;
4214;SDS011;2121;48.062;7.850;2022-08-03T13:22:11;4.70;;;1.55;;
4214;SDS011;2121;48.062;7.850;2022-08-03T13:24:41;1.75;;;1.65;;
4214;SDS011;2121;48.062;7.850;2022-08-03T13:27:09;1.55;;;1.45;;
4214;SDS011;2121;48.062;7.850;2022-08-03T13:29:36;1.80;;;1.70;;
4214;SDS011;2121;48.062;7.850;2022-08-03T13:32:02;1.83;;;1.73;;
4214;SDS011;2121;48.062;7.850;2022-08-03T13:34:29;1.15;;;1.15;;
4214;SDS011;2121;48.062;7.850;2022-08-03T13:36:55;1.33;;;1.23;;
4214;SDS011;2121;48.062;7.850;2022-08-03T13:39:21;1.50;;;1.50;;
4214;SDS011;2121;48.062;7.850;2022-08-03T13:41:47;1.90;;;1.80;;
4214;SDS011;2121;48.062;7.850;2022-08-03T13:44:13;1.63;;;1.50;;
4214;SDS011;2121;48.062;7.850;2022-08-03T13:46:39;1.67;;;1.58;;
4214;SDS011;2121;48.062;7.850;2022-08-03T13:49:06;1.40;;;1.38;;
4214;SDS011;2121;48.062;7.850;2022-08-03T13:51:32;3.42;;;1.67;;
4214;SDS011;2121;48.062;7.850;2022-08-03T13:53:59;3.15;;;1.55;;
4214;SDS011;2121;48.062;7.850;2022-08-03T13:56:25;6.05;;;1.50;;
4214;SDS011;2121;48.062;7.850;2022-08-03T13:58:52;1.10;;;1.00;;
4214;SDS011;2121;48.062;7.850;2022-08-03T14:01:18;1.67;;;1.58;;
4214;SDS011;2121;48.062;7.850;2022-08-03T14:03:44;2.15;;;1.38;;
4214;SDS011;2121;48.062;7.850;2022-08-03T14:06:12;5.45;;;1.60;;
4214;SDS011;2121;48.062;7.850;2022-08-03T14:08:39;6.43;;;1.83;;
4214;SDS011;2121;48.062;7.850;2022-08-03T14:11:04;1.50;;;1.50;;
4214;SDS011;2121;48.062;7.850;2022-08-03T14:13:30;3.90;;;1.65;;
4214;SDS011;2121;48.062;7.850;2022-08-03T14:15:56;1.20;;;1.20;;
4214;SDS011;2121;48.062;7.850;2022-08-03T14:18:23;1.13;;;1.13;;
4214;SDS011;2121;48.062;7.850;2022-08-03T14:20:48;1.40;;;1.40;;
4214;SDS011;2121;48.062;7.850;2022-08-03T14:23:14;1.00;;;1.00;;
4214;SDS011;2121;48.062;7.850;2022-08-03T14:25:40;1.60;;;1.60;;
4214;SDS011;2121;48.062;7.850;2022-08-03T14:28:07;1.27;;;1.27;;
4214;SDS011;2121;48.062;7.850;2022-08-03T14:30:34;1.02;;;1.02;;
4214;SDS011;2121;48.062;7.850;2022-08-03T14:33:00;1.23;;;1.23;;
4214;SDS011;2121;48.062;7.850;2022-08-03T14:35:26;0.90;;;0.90;;
4214;SDS011;2121;48.062;7.850;2022-08-03T14:37:52;1.02;;;1.02;;
4214;SDS011;2121;48.062;7.850;2022-08-03T14:40:18;0.90;;;0.90;;
4214;SDS011;2121;48.062;7.850;2022-08-03T14:42:44;0.75;;;0.75;;
4214;SDS011;2121;48.062;7.850;2022-08-03T14:45:10;0.85;;;0.85;;
4214;SDS011;2121;48.062;7.850;2022-08-03T14:47:37;0.90;;;0.90;;
4214;SDS011;2121;48.062;7.850;2022-08-03T14:50:04;0.88;;;0.88;;
4214;SDS011;2121;48.062;7.850;2022-08-03T14:52:32;0.80;;;0.80;;
4214;SDS011;2121;48.062;7.850;2022-08-03T14:54:58;4.10;;;1.20;;
4214;SDS011;2121;48.062;7.850;2022-08-03T14:57:25;1.10;;;1.10;;
4214;SDS011;2121;48.062;7.850;2022-08-03T14:59:51;0.90;;;0.90;;
4214;SDS011;2121;48.062;7.850;2022-08-03T15:02:17;0.90;;;0.90;;
4214;SDS011;2121;48.062;7.850;2022-08-03T15:04:43;1.30;;;1.25;;
4214;SDS011;2121;48.062;7.850;2022-08-03T15:07:09;4.03;;;1.52;;
4214;SDS011;2121;48.062;7.850;2022-08-03T15:09:35;1.60;;;1.50;;
4214;SDS011;2121;48.062;7.850;2022-08-03T15:12:02;1.27;;;1.17;;
4214;SDS011;2121;48.062;7.850;2022-08-03T15:14:30;2.13;;;1.30;;
4214;SDS011;2121;48.062;7.850;2022-08-03T15:16:56;1.20;;;1.10;;
4214;SDS011;2121;48.062;7.850;2022-08-03T15:19:21;4.45;;;1.30;;
4214;SDS011;2121;48.062;7.850;2022-08-03T15:21:47;1.05;;;1.05;;
4214;SDS011;2121;48.062;7.850;2022-08-03T15:24:13;1.35;;;1.02;;
4214;SDS011;2121;48.062;7.850;2022-08-03T15:26:39;0.90;;;0.90;;
4214;SDS011;2121;48.062;7.850;2022-08-03T15:29:04;1.00;;;1.00;;
4214;SDS011;2121;48.062;7.850;2022-08-03T15:31:32;1.05;;;1.00;;
4214;SDS011;2121;48.062;7.850;2022-08-03T15:33:58;1.33;;;1.20;;
4214;SDS011;2121;48.062;7.850;2022-08-03T15:36:24;0.88;;;0.88;;
4214;SDS011;2121;48.062;7.850;2022-08-03T15:38:51;0.80;;;0.80;;
4214;SDS011;2121;48.062;7.850;2022-08-03T15:41:17;1.00;;;1.00;;
4214;SDS011;2121;48.062;7.850;2022-08-03T15:43:43;1.00;;;1.00;;
4214;SDS011;2121;48.062;7.850;2022-08-03T15:46:10;0.95;;;0.95;;
4214;SDS011;2121;48.062;7.850;2022-08-03T15:48:38;1.15;;;1.15;;
4214;SDS011;2121;48.062;7.850;2022-08-03T15:51:05;0.90;;;0.90;;
4214;SDS011;2121;48.062;7.850;2022-08-03T15:53:31;1.35;;;1.33;;
4214;SDS011;2121;48.062;7.850;2022-08-03T15:55:57;1.10;;;1.10;;
4214;SDS011;2121;48.062;7.850;2022-08-03T15:58:24;1.40;;;1.30;;
4214;SDS011;2121;48.062;7.850;2022-08-03T16:00:54;1.33;;;1.23;;
4214;SDS011;2121;48.062;7.850;2022-08-03T16:03:23;1.42;;;1.40;;
4214;SDS011;2121;48.062;7.850;2022-08-03T16:05:52;4.15;;;1.40;;
4214;SDS011;2121;48.062;7.850;2022-08-03T16:08:19;1.13;;;1.13;;
4214;SDS011;2121;48.062;7.850;2022-08-03T16:10:45;1.13;;;1.13;;
4214;SDS011;2121;48.062;7.850;2022-08-03T16:13:12;1.27;;;1.27;;